createdAt,value
2023-05-19T00:00:07.084Z,14.41
2023-05-19T00:03:04.878Z,14.36
2023-05-19T00:06:03.275Z,14.27
2023-05-19T00:09:04.723Z,14.08
2023-05-19T00:12:01.237Z,14.18
2023-05-19T00:14:57.823Z,14.33
2023-05-19T00:17:55.553Z,14.59
2023-05-19T00:20:51.953Z,14.34
2023-05-19T00:23:47.530Z,14.46
2023-05-19T00:26:43.060Z,14.6
2023-05-19T00:29:38.668Z,14.84
2023-05-19T00:32:35.248Z,14.95
2023-05-19T00:35:30.764Z,14.92
2023-05-19T00:38:27.290Z,14.97
2023-05-19T00:41:22.919Z,15.04
2023-05-19T00:44:18.427Z,15.14
2023-05-19T00:47:13.977Z,15.1
2023-05-19T00:50:10.540Z,15.16
2023-05-19T00:53:07.102Z,15.16
2023-05-19T00:56:04.676Z,15.06
2023-05-19T00:59:02.267Z,15.2
2023-05-19T01:01:58.771Z,15.05
2023-05-19T01:04:57.349Z,15.05
2023-05-19T01:07:54.909Z,15.06
2023-05-19T01:10:50.483Z,15.08
2023-05-19T01:13:46.998Z,15.2
2023-05-19T01:16:51.712Z,15.06
2023-05-19T01:20:02.143Z,15.01
2023-05-19T01:23:17.563Z,14.95
2023-05-19T01:26:33.114Z,14.96
2023-05-19T01:29:42.640Z,14.84
2023-05-19T01:32:41.245Z,15.07
2023-05-19T01:35:38.735Z,15.08
2023-05-19T01:38:37.311Z,14.89
2023-05-19T01:41:36.836Z,14.85
2023-05-19T01:44:33.427Z,14.57
2023-05-19T01:47:28.956Z,14.75
2023-05-19T01:50:25.551Z,14.57
2023-05-19T01:53:21.076Z,14.62
2023-05-19T01:56:22.611Z,14.66
2023-05-19T01:59:28.229Z,14.57
2023-05-19T02:02:29.761Z,14.38
2023-05-19T02:05:34.252Z,14.24
2023-05-19T02:08:38.796Z,14.44
2023-05-19T02:11:37.330Z,14.35
2023-05-19T02:14:37.875Z,14.28
2023-05-19T02:17:36.539Z,14.03
2023-05-19T02:20:33.401Z,13.88
2023-05-19T02:23:28.583Z,13.71
2023-05-19T02:26:24.125Z,13.59
2023-05-19T02:29:20.719Z,13.8
2023-05-19T02:32:18.796Z,13.76
2023-05-19T02:35:16.813Z,14.03
2023-05-19T02:38:13.366Z,13.75
2023-05-19T02:41:08.881Z,13.71
2023-05-19T02:44:05.479Z,13.65
2023-05-19T02:47:03.055Z,13.51
2023-05-19T02:49:58.592Z,13.37
2023-05-19T02:52:54.153Z,13.39
2023-05-19T02:55:49.728Z,13.46
2023-05-19T02:58:45.308Z,13.44
2023-05-19T03:01:41.893Z,13.49
2023-05-19T03:04:41.374Z,13.47
2023-05-19T03:07:37.980Z,13.09
2023-05-19T03:10:35.491Z,12.84
2023-05-19T03:13:32.077Z,12.78
2023-05-19T03:16:29.688Z,12.73
2023-05-19T03:22:31.734Z,12.56
2023-05-19T03:25:27.301Z,12.38
2023-05-19T03:28:22.805Z,12.46
2023-05-19T03:31:21.399Z,12.76
2023-05-19T03:34:17.027Z,12.52
2023-05-19T03:37:12.491Z,12.51
2023-05-19T03:40:10.094Z,12.49
2023-05-19T03:43:06.640Z,12.5
2023-05-19T03:46:02.343Z,12.6
2023-05-19T03:48:58.758Z,12.74
2023-05-19T03:51:54.318Z,12.81
2023-05-19T03:54:50.899Z,12.97
2023-05-19T03:57:47.442Z,12.96
2023-05-19T04:00:44.016Z,12.98
2023-05-19T04:03:40.627Z,12.92
2023-05-19T04:06:37.109Z,13.17
2023-05-19T04:09:34.690Z,13.21
2023-05-19T04:12:30.276Z,13.31
2023-05-19T04:15:25.794Z,13.23
2023-05-19T04:18:21.358Z,13.36
2023-05-19T04:21:16.913Z,13.33
2023-05-19T04:24:13.499Z,13.5
2023-05-19T04:27:12.153Z,13.55
2023-05-19T04:30:08.599Z,13.72
2023-05-19T04:33:05.224Z,13.63
2023-05-19T04:36:04.690Z,13.72
2023-05-19T04:39:02.249Z,13.64
2023-05-19T04:41:57.831Z,13.73
2023-05-19T04:44:53.371Z,13.66
2023-05-19T04:47:49.951Z,13.7
2023-05-19T04:50:48.507Z,13.77
2023-05-19T04:53:44.053Z,14.1
2023-05-19T04:56:41.633Z,14.2
2023-05-19T04:59:38.187Z,14.16
2023-05-19T05:02:36.880Z,14.2
2023-05-19T05:05:32.319Z,14.09
2023-05-19T05:08:29.848Z,13.93
2023-05-19T05:11:26.398Z,14.13
2023-05-19T05:14:22.988Z,14.25
2023-05-19T05:17:20.586Z,13.74
2023-05-19T05:20:17.084Z,13.73
2023-05-19T05:23:14.706Z,14.01
2023-05-19T05:26:15.182Z,14.52
2023-05-19T05:29:10.761Z,14.71
2023-05-19T05:32:11.337Z,14.22
2023-05-19T05:35:09.854Z,14.83
2023-05-19T05:38:06.422Z,14.94
2023-05-19T05:41:02.965Z,15.43
2023-05-19T05:43:58.509Z,15.49
2023-05-19T05:46:55.137Z,15.11
2023-05-19T05:49:53.481Z,15.41
2023-05-19T05:52:50.174Z,15.75
2023-05-19T05:55:47.779Z,16
2023-05-19T05:58:43.332Z,15.95
2023-05-19T06:01:43.892Z,15.15
2023-05-19T06:04:40.445Z,15.53
2023-05-19T06:07:36.974Z,15.8
2023-05-19T06:10:33.152Z,15.99
2023-05-19T06:13:29.110Z,15.43
2023-05-19T06:16:25.795Z,15.95
2023-05-19T06:19:21.293Z,16.56
2023-05-19T06:22:17.798Z,16.19
2023-05-19T06:25:13.367Z,15.88
2023-05-19T06:28:08.907Z,15.59
2023-05-19T06:31:04.478Z,16.35
2023-05-19T06:34:00.054Z,16.18
2023-05-19T06:36:55.555Z,15.81
2023-05-19T06:39:52.156Z,15.88
2023-05-19T06:42:47.727Z,16.37
2023-05-19T06:45:43.260Z,16.7
2023-05-19T06:48:38.796Z,15.86
2023-05-19T06:51:35.460Z,16.65
2023-05-19T06:54:30.951Z,16.63
2023-05-19T06:57:26.485Z,16.76
2023-05-19T07:00:24.232Z,16.75
2023-05-19T07:03:19.736Z,17.15
2023-05-19T07:06:16.192Z,17.03
2023-05-19T07:09:12.736Z,17.01
2023-05-19T07:12:08.276Z,16.6
2023-05-19T07:15:04.861Z,17.06
2023-05-19T07:18:00.515Z,17.42
2023-05-19T07:20:57.007Z,17.31
2023-05-19T07:23:52.584Z,17.03
2023-05-19T07:26:48.105Z,17.61
2023-05-19T07:29:43.726Z,17.56
2023-05-19T07:32:39.231Z,17.6
2023-05-19T07:35:34.838Z,17.62
2023-05-19T07:38:31.427Z,18.11
2023-05-19T07:41:26.893Z,17.99
2023-05-19T07:44:23.505Z,18.22
2023-05-19T07:47:19.067Z,18.14
2023-05-19T07:50:14.650Z,18.07
2023-05-19T07:53:10.164Z,18.65
2023-05-19T07:56:06.712Z,18.68
2023-05-19T07:59:03.295Z,18.36
2023-05-19T08:01:59.829Z,18
2023-05-19T08:04:56.535Z,17.9
2023-05-19T08:07:51.961Z,17.91
2023-05-19T08:10:47.527Z,17.78
2023-05-19T08:13:43.086Z,18.24
2023-05-19T08:16:41.651Z,18.29
2023-05-19T08:19:39.159Z,18.57
2023-05-19T08:22:35.798Z,19.17
2023-05-19T08:25:31.326Z,19.27
2023-05-19T08:28:26.890Z,19.01
2023-05-19T08:31:24.463Z,19.08
2023-05-19T08:34:20.058Z,19.59
2023-05-19T08:37:16.539Z,19.38
2023-05-19T08:40:16.121Z,19.48
2023-05-19T08:43:12.694Z,19.92
2023-05-19T08:46:13.289Z,19.85
2023-05-19T08:49:12.730Z,19.9
2023-05-19T08:52:17.308Z,19.79
2023-05-19T08:55:21.856Z,19.79
2023-05-19T08:58:20.405Z,19.9
2023-05-19T09:01:17.161Z,19.34
2023-05-19T09:04:13.628Z,19.36
2023-05-19T09:07:13.107Z,19.31
2023-05-19T09:10:08.636Z,19.95
2023-05-19T09:13:06.187Z,19.99
2023-05-19T09:16:03.810Z,19.71
2023-05-19T09:19:00.356Z,19.81
2023-05-19T09:22:00.851Z,19.4
2023-05-19T09:24:58.407Z,19.34
2023-05-19T09:27:54.946Z,19.35
2023-05-19T09:30:55.495Z,19.47
2023-05-19T09:33:53.056Z,19.68
2023-05-19T09:36:49.673Z,19.66
2023-05-19T09:39:49.182Z,19.94
2023-05-19T09:42:48.770Z,19.92
2023-05-19T09:45:44.325Z,19.66
2023-05-19T09:48:39.836Z,19.75
2023-05-19T09:51:37.420Z,19.48
2023-05-19T09:54:34.974Z,19.34
2023-05-19T09:57:34.527Z,19.13
2023-05-19T10:00:31.254Z,19.05
2023-05-19T10:03:29.613Z,19.19
2023-05-19T10:06:26.190Z,19.1
2023-05-19T10:09:24.784Z,19.14
2023-05-19T10:12:21.300Z,18.98
2023-05-19T10:15:17.857Z,19.08
2023-05-19T10:18:16.422Z,18.91
2023-05-19T10:21:13.968Z,19.22
2023-05-19T10:24:11.404Z,19.36
2023-05-19T10:27:10.096Z,19.51
2023-05-19T10:30:12.764Z,19.59
2023-05-19T10:33:13.210Z,19.79
2023-05-19T10:36:22.736Z,20.03
2023-05-19T10:39:25.269Z,20.45
2023-05-19T10:42:29.804Z,20.52
2023-05-19T10:45:34.641Z,20.74
2023-05-19T10:48:33.951Z,20.48
2023-05-19T10:51:31.508Z,21.08
2023-05-19T10:54:38.981Z,21.42
2023-05-19T10:57:36.524Z,21.49
2023-05-19T11:00:42.064Z,21.92
2023-05-19T11:03:46.615Z,21.93
2023-05-19T11:06:51.144Z,22.1
2023-05-19T11:09:49.688Z,22.24
2023-05-19T11:12:52.055Z,22.43
2023-05-19T11:15:49.793Z,22.83
2023-05-19T11:18:49.363Z,23.24
2023-05-19T11:21:49.887Z,22.91
2023-05-19T11:24:53.421Z,23.12
2023-05-19T11:27:52.040Z,23.1
2023-05-19T11:30:54.555Z,23.08
2023-05-19T11:33:52.084Z,22.55
2023-05-19T11:36:50.667Z,23.24
2023-05-19T11:39:48.192Z,23.13
2023-05-19T11:42:44.776Z,24.17
2023-05-19T11:45:41.322Z,24.93
2023-05-19T11:48:37.960Z,24.09
2023-05-19T11:51:33.433Z,23.4
2023-05-19T11:54:31.006Z,23.66
2023-05-19T11:57:26.594Z,24.38
2023-05-19T12:00:26.132Z,24.6
2023-05-19T12:03:22.892Z,25.41
2023-05-19T12:06:20.228Z,25.49
2023-05-19T12:09:16.811Z,26.07
2023-05-19T12:12:13.358Z,26.66
2023-05-19T12:15:09.874Z,25.77
2023-05-19T12:18:06.488Z,25.67
2023-05-19T12:21:05.018Z,26.3
2023-05-19T12:24:03.575Z,26.01
2023-05-19T12:27:04.101Z,26.27
2023-05-19T12:30:00.698Z,27.37
2023-05-19T12:32:57.257Z,27.69
2023-05-19T12:35:54.795Z,28.83
2023-05-19T12:38:53.337Z,28.14
2023-05-19T12:41:49.900Z,27.78
2023-05-19T12:44:47.477Z,27.38
2023-05-19T12:47:48.035Z,29.84
2023-05-19T12:50:44.573Z,29.57
2023-05-19T12:53:42.130Z,28.94
2023-05-19T12:56:48.681Z,29.47
2023-05-19T12:59:50.238Z,30.15
2023-05-19T13:02:55.870Z,29.1
2023-05-19T13:05:51.333Z,31.31
2023-05-19T13:08:47.872Z,31.11
2023-05-19T13:11:44.437Z,30.73
2023-05-19T13:14:41.978Z,29.51
2023-05-19T13:17:37.522Z,30.42
2023-05-19T13:20:34.277Z,31.78
2023-05-19T13:23:29.670Z,32.09
2023-05-19T13:26:25.250Z,30.95
2023-05-19T13:29:20.835Z,31.14
2023-05-19T13:32:21.323Z,32.6
2023-05-19T13:35:16.912Z,32.55
2023-05-19T13:38:14.476Z,31.91
2023-05-19T13:41:11.037Z,32.52
2023-05-19T13:44:06.595Z,31.65
2023-05-19T13:47:02.188Z,31.99
2023-05-19T13:49:57.724Z,32.09
2023-05-19T13:52:53.286Z,33.81
2023-05-19T13:55:48.826Z,34.41
2023-05-19T13:58:47.406Z,32.08
2023-05-19T14:01:44.001Z,33.22
2023-05-19T14:04:40.488Z,32.86
2023-05-19T14:07:38.073Z,32.6
2023-05-19T14:10:33.862Z,32.38
2023-05-19T14:13:34.424Z,32.65
2023-05-19T14:16:31.916Z,33.85
2023-05-19T14:19:30.450Z,33.27
2023-05-19T14:22:25.817Z,33.4
2023-05-19T14:25:21.400Z,33.27
2023-05-19T14:28:16.908Z,31.78
2023-05-19T14:31:14.539Z,31.05
2023-05-19T14:34:11.093Z,31.58
2023-05-19T14:37:06.668Z,30.55
2023-05-19T14:40:04.168Z,31.18
2023-05-19T14:42:59.783Z,32.68
2023-05-19T14:45:55.294Z,33.4
2023-05-19T14:48:50.886Z,34.6
2023-05-19T14:51:46.470Z,33.58
2023-05-19T14:54:41.986Z,33.51
2023-05-19T14:57:39.576Z,32.26
2023-05-19T15:00:35.325Z,29.8
2023-05-19T15:03:30.742Z,28.65
2023-05-19T15:06:26.246Z,28.5
2023-05-19T15:09:21.814Z,30.77
2023-05-19T15:12:17.372Z,31.18
2023-05-19T15:15:13.944Z,29.52
2023-05-19T15:18:09.532Z,31.07
2023-05-19T15:21:06.031Z,32.71
2023-05-19T15:24:01.612Z,33.17
2023-05-19T15:26:58.157Z,33.28
2023-05-19T15:29:53.716Z,33.1
2023-05-19T15:32:49.321Z,33.5
2023-05-19T15:35:44.839Z,34.03
2023-05-19T15:38:40.651Z,34.24
2023-05-19T15:41:37.974Z,33.89
2023-05-19T15:44:36.550Z,34.15
2023-05-19T15:47:32.401Z,33.65
2023-05-19T15:50:28.601Z,33.55
2023-05-19T15:53:25.219Z,31.42
2023-05-19T15:56:21.778Z,29.59
2023-05-19T15:59:18.349Z,28.38
2023-05-19T16:02:14.918Z,27.87
2023-05-19T16:05:11.478Z,27.21
2023-05-19T16:08:08.621Z,25.84
2023-05-19T16:11:05.548Z,25.85
2023-05-19T16:14:02.099Z,27.33
2023-05-19T16:16:58.675Z,25.55
2023-05-19T16:19:55.242Z,25.69
2023-05-19T16:22:50.800Z,25.71
2023-05-19T16:25:47.397Z,26.33
2023-05-19T16:28:42.900Z,28.12
2023-05-19T16:31:38.476Z,29.33
2023-05-19T16:34:34.049Z,29.53
2023-05-19T16:37:29.592Z,30
2023-05-19T16:40:25.160Z,29.94
2023-05-19T16:43:20.768Z,30.45
2023-05-19T16:46:16.357Z,30.29
2023-05-19T16:49:11.833Z,31.28
2023-05-19T16:52:07.422Z,30.27
2023-05-19T16:55:02.941Z,29.26
2023-05-19T16:57:59.516Z,28.96
2023-05-19T17:00:56.077Z,28.72
2023-05-19T17:03:51.705Z,27.97
2023-05-19T17:06:48.219Z,27.47
2023-05-19T17:09:43.788Z,26.77
2023-05-19T17:12:39.318Z,26.42
2023-05-19T17:15:34.889Z,26.04
2023-05-19T17:18:31.477Z,25.55
2023-05-19T17:21:27.009Z,25.26
2023-05-19T17:24:23.611Z,25.14
2023-05-19T17:27:19.141Z,24.92
2023-05-19T17:30:14.709Z,24.7
2023-05-19T17:33:10.318Z,24.36
2023-05-19T17:36:06.805Z,24.18
2023-05-19T17:39:09.372Z,24.15
2023-05-19T17:42:05.910Z,23.81
2023-05-19T17:45:03.464Z,23.71
2023-05-19T17:47:59.113Z,23.42
2023-05-19T17:50:54.616Z,22.94
2023-05-19T17:53:50.175Z,22.51
2023-05-19T17:56:46.698Z,22.45
2023-05-19T17:59:42.345Z,22.2
2023-05-19T18:02:39.984Z,21.9
2023-05-19T18:05:37.414Z,21.74
2023-05-19T18:08:38.938Z,21.63
2023-05-19T18:11:35.500Z,21.52
2023-05-19T18:14:31.062Z,21.42
2023-05-19T18:17:26.744Z,21.33
2023-05-19T18:20:22.206Z,21.28
2023-05-19T18:23:20.366Z,21.07
2023-05-19T18:26:21.289Z,21.05
2023-05-19T18:29:16.864Z,20.63
2023-05-19T18:32:15.506Z,20.29
2023-05-19T18:35:10.970Z,20.11
2023-05-19T18:38:06.524Z,20.19
2023-05-19T18:41:02.093Z,20.15
2023-05-19T18:44:05.651Z,19.96
2023-05-19T18:47:01.202Z,19.64
2023-05-19T18:49:56.758Z,19.51
2023-05-19T18:52:54.326Z,19.22
2023-05-19T18:55:49.873Z,19.24
2023-05-19T18:58:45.542Z,19.31
2023-05-19T19:01:42.037Z,19
2023-05-19T19:04:37.625Z,18.75
2023-05-19T19:07:33.143Z,18.67
2023-05-19T19:10:29.685Z,18.68
2023-05-19T19:13:26.240Z,18.58
2023-05-19T19:16:22.929Z,18.52
2023-05-19T19:19:18.465Z,18.29
2023-05-19T19:22:13.926Z,18.39
2023-05-19T19:25:09.479Z,18.24
2023-05-19T19:28:07.061Z,18.09
2023-05-19T19:31:02.602Z,18.17
2023-05-19T19:34:03.181Z,18.21
2023-05-19T19:36:58.685Z,18.22
2023-05-19T19:39:54.239Z,18.02
2023-05-19T19:42:49.809Z,17.8
2023-05-19T19:45:45.394Z,17.68
2023-05-19T19:48:41.956Z,17.64
2023-05-19T19:51:37.530Z,17.6
2023-05-19T19:54:34.096Z,17.59
2023-05-19T19:57:33.633Z,17.45
2023-05-19T20:00:35.453Z,17.38
2023-05-19T20:03:32.872Z,17.17
2023-05-19T20:06:29.304Z,17.21
2023-05-19T20:09:26.811Z,17.18
2023-05-19T20:12:22.424Z,17
2023-05-19T20:15:19.021Z,17
2023-05-19T20:18:15.530Z,16.99
2023-05-19T20:21:11.098Z,17.05
2023-05-19T20:24:06.672Z,17.06
2023-05-19T20:27:03.210Z,16.99
2023-05-19T20:29:58.779Z,16.97
2023-05-19T20:32:56.377Z,17.14
2023-05-19T20:35:51.887Z,17.19
2023-05-19T20:38:47.474Z,17.16
2023-05-19T20:41:43.017Z,17.09
2023-05-19T20:44:39.585Z,17.05
2023-05-19T20:47:36.172Z,17.11
2023-05-19T20:50:31.898Z,17.1
2023-05-19T20:53:27.233Z,17.12
2023-05-19T20:56:22.765Z,17.25
2023-05-19T20:59:18.400Z,17.29
2023-05-19T21:02:14.934Z,17.18
2023-05-19T21:05:10.540Z,17.13
2023-05-19T21:08:12.083Z,16.96
2023-05-19T21:11:07.603Z,16.95
2023-05-19T21:14:04.505Z,16.97
2023-05-19T21:17:00.777Z,16.93
2023-05-19T21:19:59.328Z,16.96
2023-05-19T21:22:56.881Z,17
2023-05-19T21:25:52.382Z,16.92
2023-05-19T21:28:47.953Z,16.73
2023-05-19T21:31:43.540Z,16.48
2023-05-19T21:34:41.082Z,16.35
2023-05-19T21:37:37.648Z,16.23
2023-05-19T21:40:33.449Z,16.04
2023-05-19T21:43:29.791Z,15.95
2023-05-19T21:46:27.327Z,15.94
2023-05-19T21:49:23.879Z,15.86
2023-05-19T21:52:19.401Z,15.87
2023-05-19T21:55:16.011Z,15.97
2023-05-19T21:58:12.592Z,16.11
2023-05-19T22:01:08.119Z,16.05
2023-05-19T22:04:04.849Z,16.03
2023-05-19T22:07:01.247Z,16.03
2023-05-19T22:09:56.788Z,16.08
2023-05-19T22:12:52.341Z,16.12
2023-05-19T22:15:48.903Z,16.24
2023-05-19T22:18:45.487Z,16.16
2023-05-19T22:21:41.014Z,16.11
2023-05-19T22:24:36.554Z,16.05
2023-05-19T22:27:32.157Z,15.95
2023-05-19T22:30:27.702Z,15.78
2023-05-19T22:33:23.308Z,15.69
2023-05-19T22:36:18.843Z,15.65
2023-05-19T22:39:14.430Z,15.72
2023-05-19T22:42:10.985Z,15.74
2023-05-19T22:45:07.516Z,15.6
2023-05-19T22:48:03.135Z,15.59
2023-05-19T22:50:58.636Z,15.64
2023-05-19T22:53:54.203Z,15.68
2023-05-19T22:56:50.775Z,15.64
2023-05-19T22:59:49.317Z,15.59
2023-05-19T23:02:44.901Z,15.64
2023-05-19T23:05:42.455Z,15.45
2023-05-19T23:08:38.971Z,15.38
2023-05-19T23:11:40.517Z,15.42
2023-05-19T23:14:42.074Z,15.38
2023-05-19T23:17:42.672Z,15.35
2023-05-19T23:20:39.165Z,15.38
2023-05-19T23:23:36.768Z,15.42
2023-05-19T23:26:32.293Z,15.23
2023-05-19T23:29:27.846Z,15.12
2023-05-19T23:32:23.415Z,15.11
2023-05-19T23:35:20.049Z,15.13
2023-05-19T23:38:16.560Z,15.14
2023-05-19T23:41:12.104Z,15.04
2023-05-19T23:44:09.686Z,15
2023-05-19T23:47:06.291Z,14.92
2023-05-19T23:50:01.793Z,14.83
2023-05-19T23:52:57.346Z,14.83
2023-05-19T23:55:52.955Z,14.81
2023-05-19T23:58:48.463Z,14.86
